createdAt,value
2018-01-29T00:00:31.405Z,72.26
2018-01-29T00:03:00.557Z,72.71
2018-01-29T00:05:29.368Z,72.51
2018-01-29T00:07:59.385Z,72.68
2018-01-29T00:10:29.154Z,72.61
2018-01-29T00:12:57.624Z,72.36
2018-01-29T00:15:26.233Z,71.99
2018-01-29T00:17:54.848Z,72.29
2018-01-29T00:20:23.736Z,72.31
2018-01-29T00:22:52.537Z,73.16
2018-01-29T00:25:22.535Z,73.80
2018-01-29T00:27:52.366Z,73.35
2018-01-29T00:30:21.488Z,72.76
2018-01-29T00:32:49.969Z,72.99
2018-01-29T00:35:19.345Z,71.92
2018-01-29T00:37:48.382Z,72.05
2018-01-29T00:40:17.922Z,73.63
2018-01-29T00:42:47.782Z,73.04
2018-01-29T00:45:17.021Z,73.19
2018-01-29T00:47:46.252Z,73.47
2018-01-29T00:50:15.314Z,73.73
2018-01-29T00:52:44.243Z,74.22
2018-01-29T00:55:13.634Z,75.11
2018-01-29T00:57:43.097Z,73.87
2018-01-29T01:00:11.914Z,73.21
2018-01-29T01:02:40.370Z,72.28
2018-01-29T01:05:09.462Z,72.43
2018-01-29T01:07:38.860Z,72.05
2018-01-29T01:10:07.686Z,73.24
2018-01-29T01:12:37.453Z,73.63
2018-01-29T01:15:06.297Z,73.06
2018-01-29T01:17:35.195Z,72.90
2018-01-29T01:20:04.464Z,72.95
2018-01-29T01:22:34.274Z,73.03
2018-01-29T01:25:04.123Z,72.44
2018-01-29T01:27:33.162Z,73.02
2018-01-29T01:30:01.993Z,72.82
2018-01-29T01:32:31.699Z,72.97
2018-01-29T01:35:01.808Z,73.23
2018-01-29T01:37:31.039Z,74.23
2018-01-29T01:40:00.162Z,72.81
2018-01-29T01:42:29.667Z,72.76
2018-01-29T01:44:58.966Z,72.43
2018-01-29T01:47:28.085Z,72.16
2018-01-29T01:49:57.516Z,72.44
2018-01-29T01:52:27.096Z,72.62
2018-01-29T01:54:56.790Z,72.02
2018-01-29T01:57:27.857Z,73.22
2018-01-29T01:59:56.305Z,72.92
2018-01-29T02:02:25.231Z,71.54
2018-01-29T02:04:54.158Z,72.35
2018-01-29T02:07:22.985Z,72.96
2018-01-29T02:09:52.188Z,72.84
2018-01-29T02:12:20.645Z,71.84
2018-01-29T02:14:49.855Z,71.90
2018-01-29T02:17:18.691Z,73.51
2018-01-29T02:19:47.141Z,73.59
2018-01-29T02:22:16.433Z,72.76
2018-01-29T02:24:45.317Z,72.00
2018-01-29T02:27:15.408Z,72.80
2018-01-29T02:29:44.699Z,72.69
2018-01-29T02:32:13.874Z,72.41
2018-01-29T02:34:43.152Z,73.01
2018-01-29T02:37:11.750Z,72.78
2018-01-29T02:39:41.089Z,73.36
2018-01-29T02:42:10.275Z,72.63
2018-01-29T02:44:39.234Z,72.77
2018-01-29T02:47:08.061Z,72.24
2018-01-29T02:49:37.112Z,72.43
2018-01-29T02:52:06.898Z,71.89
2018-01-29T02:54:36.620Z,73.07
2018-01-29T02:57:05.117Z,72.03
2018-01-29T02:59:34.539Z,72.98
2018-01-29T03:02:03.103Z,73.01
2018-01-29T03:04:31.921Z,72.15
2018-01-29T03:07:00.703Z,72.07
2018-01-29T03:09:29.256Z,71.63
2018-01-29T03:12:01.635Z,71.42
2018-01-29T03:14:30.889Z,71.38
2018-01-29T03:17:01.029Z,71.39
2018-01-29T03:19:30.515Z,70.69
2018-01-29T03:21:59.626Z,70.57
2018-01-29T03:24:28.804Z,71.50
2018-01-29T03:26:57.838Z,71.59
2018-01-29T03:29:26.676Z,71.01
2018-01-29T03:31:56.494Z,70.97
2018-01-29T03:34:25.509Z,71.52
2018-01-29T03:36:54.305Z,71.23
2018-01-29T03:39:23.259Z,71.43
2018-01-29T03:41:52.591Z,71.72
2018-01-29T03:44:21.826Z,71.70
2018-01-29T03:46:50.275Z,72.87
2018-01-29T03:49:19.981Z,71.85
2018-01-29T03:51:48.708Z,72.46
2018-01-29T03:54:17.748Z,71.69
2018-01-29T03:56:48.105Z,71.47
2018-01-29T03:59:16.716Z,71.68
2018-01-29T04:01:45.719Z,70.95
2018-01-29T04:04:14.703Z,70.48
2018-01-29T04:06:44.001Z,70.45
2018-01-29T04:09:13.351Z,71.36
2018-01-29T04:11:42.383Z,71.86
2018-01-29T04:14:11.046Z,71.24
2018-01-29T04:16:40.147Z,70.56
2018-01-29T04:19:08.885Z,69.94
2018-01-29T04:21:37.940Z,71.23
2018-01-29T04:24:06.829Z,70.37
2018-01-29T04:26:36.782Z,70.33
2018-01-29T04:29:05.507Z,70.25
2018-01-29T04:31:35.371Z,70.33
2018-01-29T04:34:04.117Z,69.51
2018-01-29T04:36:32.565Z,69.77
2018-01-29T04:39:02.589Z,69.72
2018-01-29T04:41:31.984Z,69.90
2018-01-29T04:44:00.848Z,70.69
2018-01-29T04:46:31.176Z,70.34
2018-01-29T04:48:59.724Z,69.89
2018-01-29T04:51:28.331Z,70.40
2018-01-29T04:53:57.152Z,70.60
2018-01-29T04:56:26.941Z,70.95
2018-01-29T04:58:55.418Z,71.36
2018-01-29T05:01:23.879Z,71.16
2018-01-29T05:03:52.380Z,71.11
2018-01-29T05:06:22.228Z,71.31
2018-01-29T05:08:51.374Z,71.11
2018-01-29T05:11:20.237Z,69.57
2018-01-29T05:13:48.692Z,69.47
2018-01-29T05:16:18.184Z,70.99
2018-01-29T05:18:47.314Z,70.24
2018-01-29T05:21:16.484Z,70.27
2018-01-29T05:23:45.674Z,69.56
2018-01-29T05:26:15.511Z,69.43
2018-01-29T05:28:45.647Z,69.25
2018-01-29T05:31:14.570Z,71.04
2018-01-29T05:33:43.218Z,70.59
2018-01-29T05:36:17.771Z,70.32
2018-01-29T05:38:46.801Z,69.85
2018-01-29T05:41:15.596Z,69.59
2018-01-29T05:43:44.063Z,70.61
2018-01-29T05:46:13.908Z,71.05
2018-01-29T05:48:43.172Z,70.56
2018-01-29T05:51:12.947Z,71.09
2018-01-29T05:53:41.779Z,69.43
2018-01-29T05:56:10.536Z,70.99
2018-01-29T05:58:40.116Z,69.94
2018-01-29T06:01:09.365Z,69.75
2018-01-29T06:03:38.188Z,69.69
2018-01-29T06:06:07.913Z,69.24
2018-01-29T06:08:38.218Z,69.87
2018-01-29T06:11:08.121Z,69.72
2018-01-29T06:13:36.669Z,69.46
2018-01-29T06:16:05.587Z,69.06
2018-01-29T06:18:34.687Z,69.34
2018-01-29T06:21:04.509Z,69.66
2018-01-29T06:23:33.663Z,69.77
2018-01-29T06:26:02.601Z,68.66
2018-01-29T06:28:31.755Z,69.39
2018-01-29T06:31:01.100Z,68.56
2018-01-29T06:33:30.937Z,69.45
2018-01-29T06:35:59.732Z,70.13
2018-01-29T06:38:28.176Z,69.37
2018-01-29T06:40:57.504Z,68.95
2018-01-29T06:43:26.761Z,70.10
2018-01-29T06:45:55.570Z,69.81
2018-01-29T06:48:24.914Z,69.54
2018-01-29T06:50:54.237Z,69.63
2018-01-29T06:53:24.019Z,68.55
2018-01-29T06:55:52.632Z,68.63
2018-01-29T06:58:21.073Z,68.37
2018-01-29T07:00:50.583Z,67.90
2018-01-29T07:03:19.775Z,68.01
2018-01-29T07:05:48.916Z,68.16
2018-01-29T07:08:17.548Z,68.12
2018-01-29T07:10:46.519Z,66.93
2018-01-29T07:13:15.308Z,66.74
2018-01-29T07:15:44.776Z,67.01
2018-01-29T07:18:13.417Z,67.32
2018-01-29T07:20:42.255Z,66.29
2018-01-29T07:23:10.985Z,66.34
2018-01-29T07:25:39.990Z,66.05
2018-01-29T07:28:10.077Z,65.76
2018-01-29T07:30:39.309Z,66.37
2018-01-29T07:33:07.736Z,65.00
2018-01-29T07:35:36.947Z,65.20
2018-01-29T07:38:06.079Z,64.87
2018-01-29T07:40:35.771Z,64.81
2018-01-29T07:43:04.883Z,65.19
2018-01-29T07:45:33.918Z,64.52
2018-01-29T07:48:02.734Z,63.91
2018-01-29T07:50:31.578Z,63.88
2018-01-29T07:53:01.268Z,63.26
2018-01-29T07:55:30.755Z,63.88
2018-01-29T07:57:59.588Z,64.18
2018-01-29T08:00:28.383Z,63.88
2018-01-29T08:02:56.890Z,63.00
2018-01-29T08:05:25.695Z,63.46
2018-01-29T08:07:54.197Z,63.24
2018-01-29T08:10:23.027Z,63.43
2018-01-29T08:12:51.522Z,62.60
2018-01-29T08:15:20.865Z,62.41
2018-01-29T08:17:49.997Z,61.42
2018-01-29T08:20:18.831Z,60.80
2018-01-29T08:22:48.460Z,60.92
2018-01-29T08:25:17.770Z,60.48
2018-01-29T08:27:47.001Z,59.12
2018-01-29T08:30:15.736Z,59.39
2018-01-29T08:32:44.843Z,59.66
2018-01-29T08:35:14.020Z,59.31
2018-01-29T08:37:43.535Z,59.44
2018-01-29T08:40:13.153Z,58.63
2018-01-29T08:42:42.229Z,57.38
2018-01-29T08:45:12.554Z,57.82
2018-01-29T08:47:41.982Z,57.50
2018-01-29T08:50:10.834Z,57.66
2018-01-29T08:52:40.635Z,57.78
2018-01-29T08:55:09.280Z,57.33
2018-01-29T08:57:38.149Z,57.27
2018-01-29T09:00:07.098Z,57.65
2018-01-29T09:02:35.559Z,57.60
2018-01-29T09:05:04.048Z,56.52
2018-01-29T09:07:32.524Z,56.55
2018-01-29T09:10:00.959Z,58.05
2018-01-29T09:12:29.397Z,56.70
2018-01-29T09:14:57.866Z,57.26
2018-01-29T09:17:26.303Z,56.30
2018-01-29T09:19:55.177Z,55.84
2018-01-29T09:22:23.613Z,55.34
2018-01-29T09:24:52.106Z,56.17
2018-01-29T09:27:20.570Z,56.80
2018-01-29T09:29:49.105Z,55.95
2018-01-29T09:32:17.871Z,55.76
2018-01-29T09:34:46.340Z,56.65
2018-01-29T09:37:14.823Z,57.35
2018-01-29T09:39:43.290Z,56.63
2018-01-29T09:42:11.784Z,55.96
2018-01-29T09:44:40.251Z,56.10
2018-01-29T09:47:08.683Z,55.11
2018-01-29T09:49:37.383Z,54.68
2018-01-29T09:52:05.827Z,54.63
2018-01-29T09:54:34.268Z,54.45
2018-01-29T09:57:02.722Z,55.07
2018-01-29T09:59:31.161Z,55.47
2018-01-29T10:01:59.631Z,55.17
2018-01-29T10:04:28.065Z,55.80
2018-01-29T10:06:56.992Z,55.59
2018-01-29T10:09:25.478Z,55.02
2018-01-29T10:11:53.955Z,55.34
2018-01-29T10:14:22.439Z,55.63
2018-01-29T10:16:50.867Z,55.02
2018-01-29T10:19:19.405Z,54.71
2018-01-29T10:21:47.849Z,54.70
2018-01-29T10:24:16.667Z,54.30
2018-01-29T10:26:45.109Z,53.73
2018-01-29T10:29:13.539Z,53.27
2018-01-29T10:31:41.993Z,53.99
2018-01-29T10:34:10.422Z,54.23
2018-01-29T10:36:38.873Z,54.09
2018-01-29T10:39:07.315Z,53.83
2018-01-29T10:41:36.151Z,53.33
2018-01-29T10:44:04.584Z,53.34
2018-01-29T10:46:33.421Z,52.32
2018-01-29T10:49:01.855Z,52.30
2018-01-29T10:51:30.784Z,51.89
2018-01-29T10:53:59.219Z,52.40
2018-01-29T10:56:27.739Z,53.74
2018-01-29T10:58:56.256Z,53.80
2018-01-29T11:01:25.341Z,53.49
2018-01-29T11:03:53.921Z,53.15
2018-01-29T11:06:22.412Z,52.61
2018-01-29T11:08:52.619Z,52.67
2018-01-29T11:11:21.044Z,53.13
2018-01-29T11:13:57.883Z,53.80
2018-01-29T11:16:27.228Z,53.97
2018-01-29T11:18:56.067Z,53.60
2018-01-29T11:21:24.512Z,54.60
2018-01-29T11:23:53.339Z,53.86
2018-01-29T11:26:21.828Z,53.94
2018-01-29T11:28:52.374Z,53.71
2018-01-29T11:31:20.852Z,54.51
2018-01-29T11:33:52.086Z,53.78
2018-01-29T11:36:20.545Z,54.48
2018-01-29T11:38:49.037Z,56.87
2018-01-29T11:41:28.293Z,57.39
2018-01-29T11:43:56.730Z,56.89
2018-01-29T11:46:25.179Z,57.87
2018-01-29T11:48:53.713Z,57.13
2018-01-29T11:51:22.192Z,56.73
2018-01-29T11:53:50.728Z,56.04
2018-01-29T11:56:19.668Z,55.58
2018-01-29T11:58:48.146Z,55.27
2018-01-29T12:01:18.632Z,55.19
2018-01-29T12:03:47.465Z,55.14
2018-01-29T12:06:15.956Z,54.90
2018-01-29T12:08:49.455Z,55.06
2018-01-29T12:11:17.924Z,54.07
2018-01-29T12:13:46.357Z,53.35
2018-01-29T12:16:14.830Z,52.96
2018-01-29T12:18:43.291Z,52.40
2018-01-29T12:21:11.746Z,51.61
2018-01-29T12:23:40.229Z,52.11
2018-01-29T12:26:09.375Z,51.96
2018-01-29T12:28:37.908Z,51.15
2018-01-29T12:31:06.380Z,50.79
2018-01-29T12:33:34.819Z,50.56
2018-01-29T12:36:05.196Z,50.97
2018-01-29T12:38:33.640Z,51.17
2018-01-29T12:41:12.412Z,51.06
2018-01-29T12:43:40.877Z,51.70
2018-01-29T12:46:09.891Z,50.37
2018-01-29T12:48:38.324Z,49.66
2018-01-29T12:51:07.693Z,48.96
2018-01-29T12:53:51.076Z,49.22
2018-01-29T12:56:19.598Z,49.18
2018-01-29T12:58:48.042Z,48.14
2018-01-29T13:01:16.552Z,48.45
2018-01-29T13:03:45.000Z,47.67
2018-01-29T13:06:14.136Z,47.76
2018-01-29T13:08:42.713Z,48.56
2018-01-29T13:11:26.602Z,48.38
2018-01-29T13:13:55.515Z,48.66
2018-01-29T13:16:24.483Z,49.11
2018-01-29T13:18:53.329Z,48.87
2018-01-29T13:21:30.389Z,49.31
2018-01-29T13:23:58.827Z,51.10
2018-01-29T13:26:28.454Z,51.11
2018-01-29T13:28:59.610Z,51.60
2018-01-29T13:31:28.062Z,51.11
2018-01-29T13:34:00.892Z,51.29
2018-01-29T13:36:29.341Z,50.78
2018-01-29T13:38:57.780Z,51.41
2018-01-29T13:41:26.272Z,50.93
2018-01-29T13:43:56.424Z,51.79
2018-01-29T13:46:35.694Z,50.79
2018-01-29T13:49:04.136Z,49.97
2018-01-29T13:51:32.620Z,49.63
2018-01-29T13:54:01.072Z,49.99
2018-01-29T13:56:30.770Z,50.08
2018-01-29T13:58:59.312Z,50.20
2018-01-29T14:01:30.667Z,50.29
2018-01-29T14:03:59.166Z,50.97
2018-01-29T14:06:27.637Z,50.99
2018-01-29T14:08:56.622Z,50.49
2018-01-29T14:11:30.891Z,49.66
2018-01-29T14:13:59.735Z,49.61
2018-01-29T14:16:28.207Z,50.36
2018-01-29T14:18:56.651Z,50.00
2018-01-29T14:21:25.566Z,50.50
2018-01-29T14:23:54.070Z,51.19
2018-01-29T14:26:22.528Z,51.45
2018-01-29T14:28:50.973Z,50.58
2018-01-29T14:31:19.497Z,51.38
2018-01-29T14:33:47.957Z,50.95
2018-01-29T14:36:16.405Z,50.18
2018-01-29T14:38:44.864Z,49.07
2018-01-29T14:41:13.300Z,49.02
2018-01-29T14:43:41.761Z,49.71
2018-01-29T14:46:10.595Z,51.30
2018-01-29T14:48:39.033Z,52.09
2018-01-29T14:51:07.878Z,52.26
2018-01-29T14:53:36.403Z,53.00
2018-01-29T14:56:05.252Z,52.58
2018-01-29T14:58:33.721Z,51.88
2018-01-29T15:01:02.171Z,52.01
2018-01-29T15:03:31.103Z,52.08
2018-01-29T15:05:59.570Z,52.83
2018-01-29T15:08:28.032Z,56.15
2018-01-29T15:10:56.503Z,56.31
2018-01-29T15:13:25.384Z,58.43
2018-01-29T15:15:53.857Z,61.29
2018-01-29T15:18:22.309Z,59.50
2018-01-29T15:20:50.771Z,59.15
2018-01-29T15:23:19.281Z,58.83
2018-01-29T15:25:47.746Z,60.46
2018-01-29T15:28:16.193Z,60.67
2018-01-29T15:30:44.659Z,61.45
2018-01-29T15:33:13.114Z,63.25
2018-01-29T15:35:41.565Z,64.19
2018-01-29T15:38:10.140Z,64.61
2018-01-29T15:40:38.572Z,65.22
2018-01-29T15:43:07.405Z,65.73
2018-01-29T15:45:35.870Z,65.24
2018-01-29T15:48:04.352Z,66.02
2018-01-29T15:50:32.804Z,65.18
2018-01-29T15:53:01.644Z,65.95
2018-01-29T15:55:30.155Z,66.64
2018-01-29T15:57:58.712Z,66.15
2018-01-29T16:00:27.149Z,66.15
2018-01-29T16:02:56.070Z,65.87
2018-01-29T16:05:24.526Z,64.30
2018-01-29T16:07:53.382Z,62.95
2018-01-29T16:10:21.822Z,63.86
2018-01-29T16:12:50.396Z,63.58
2018-01-29T16:15:18.832Z,62.97
2018-01-29T16:17:47.305Z,63.31
2018-01-29T16:20:16.424Z,62.86
2018-01-29T16:22:45.352Z,62.14
2018-01-29T16:25:13.832Z,61.22
2018-01-29T16:27:42.272Z,61.16
2018-01-29T16:30:15.655Z,62.06
2018-01-29T16:32:44.090Z,63.38
2018-01-29T16:35:12.636Z,65.31
2018-01-29T16:37:41.466Z,65.59
2018-01-29T16:40:19.607Z,66.13
2018-01-29T16:42:58.676Z,67.53
2018-01-29T16:45:27.176Z,67.17
2018-01-29T16:47:58.187Z,66.83
2018-01-29T16:50:27.048Z,67.67
2018-01-29T16:52:55.504Z,66.70
2018-01-29T16:55:25.405Z,66.77
2018-01-29T16:57:53.868Z,67.78
2018-01-29T17:00:22.308Z,67.20
2018-01-29T17:02:50.829Z,67.12
2018-01-29T17:05:19.344Z,67.14
2018-01-29T17:07:47.870Z,66.45
2018-01-29T17:10:18.883Z,66.42
2018-01-29T17:12:48.591Z,66.03
2018-01-29T17:15:17.039Z,66.24
2018-01-29T17:17:45.478Z,66.13
2018-01-29T17:20:14.116Z,65.64
2018-01-29T17:22:42.644Z,66.82
2018-01-29T17:25:11.588Z,67.59
2018-01-29T17:27:40.026Z,67.58
2018-01-29T17:30:08.999Z,67.45
2018-01-29T17:32:37.516Z,68.23
2018-01-29T17:35:05.986Z,68.01
2018-01-29T17:37:35.007Z,67.77
2018-01-29T17:40:03.466Z,67.06
2018-01-29T17:42:32.388Z,67.93
2018-01-29T17:45:00.844Z,66.95
2018-01-29T17:47:29.297Z,66.80
2018-01-29T17:49:57.745Z,66.86
2018-01-29T17:52:26.199Z,66.34
2018-01-29T17:54:54.643Z,66.47
2018-01-29T17:57:23.545Z,66.50
2018-01-29T17:59:51.984Z,65.95
2018-01-29T18:02:20.433Z,67.04
2018-01-29T18:04:48.925Z,67.24
2018-01-29T18:07:17.404Z,66.94
2018-01-29T18:09:45.844Z,66.27
2018-01-29T18:12:14.782Z,66.72
2018-01-29T18:14:43.227Z,65.61
2018-01-29T18:17:12.079Z,66.48
2018-01-29T18:19:40.531Z,67.69
2018-01-29T18:22:08.972Z,66.92
2018-01-29T18:24:37.454Z,67.04
2018-01-29T18:27:05.924Z,67.06
2018-01-29T18:29:34.800Z,67.73
2018-01-29T18:32:03.242Z,67.32
2018-01-29T18:34:31.687Z,68.44
2018-01-29T18:37:00.536Z,69.53
2018-01-29T18:39:29.013Z,70.67
2018-01-29T18:41:57.495Z,69.84
2018-01-29T18:44:25.940Z,69.46
2018-01-29T18:46:54.388Z,71.07
2018-01-29T18:49:23.335Z,70.40
2018-01-29T18:51:51.791Z,70.56
2018-01-29T18:54:20.236Z,71.76
2018-01-29T18:56:48.773Z,70.49
2018-01-29T18:59:17.216Z,70.50
2018-01-29T19:01:46.064Z,71.79
2018-01-29T19:04:14.513Z,70.88
2018-01-29T19:06:42.963Z,69.87
2018-01-29T19:09:11.440Z,71.20
2018-01-29T19:11:40.310Z,70.54
2018-01-29T19:14:08.854Z,71.29
2018-01-29T19:16:37.374Z,70.53
2018-01-29T19:19:05.848Z,70.77
2018-01-29T19:21:34.296Z,71.17
2018-01-29T19:24:03.369Z,70.73
2018-01-29T19:26:31.877Z,71.08
2018-01-29T19:29:00.324Z,71.33
2018-01-29T19:31:29.184Z,69.42
2018-01-29T19:33:57.692Z,70.24
2018-01-29T19:36:26.529Z,70.69
2018-01-29T19:38:54.991Z,69.99
2018-01-29T19:41:23.481Z,70.09
2018-01-29T19:43:51.960Z,70.54
2018-01-29T19:46:20.443Z,71.21
2018-01-29T19:48:48.889Z,70.52
2018-01-29T19:51:17.364Z,70.96
2018-01-29T19:53:46.640Z,71.35
2018-01-29T19:56:15.181Z,70.96
2018-01-29T19:58:43.620Z,69.84
2018-01-29T20:01:12.103Z,71.86
2018-01-29T20:03:40.939Z,72.29
2018-01-29T20:06:09.401Z,72.44
2018-01-29T20:08:37.842Z,72.49
2018-01-29T20:11:07.889Z,73.02
2018-01-29T20:13:36.411Z,72.38
2018-01-29T20:16:04.840Z,72.54
2018-01-29T20:18:33.680Z,72.27
2018-01-29T20:21:02.251Z,73.25
2018-01-29T20:23:30.745Z,73.22
2018-01-29T20:25:59.176Z,73.77
2018-01-29T20:28:33.835Z,72.36
2018-01-29T20:31:02.285Z,71.95
2018-01-29T20:33:30.789Z,71.59
2018-01-29T20:35:59.283Z,71.35
2018-01-29T20:38:27.743Z,71.26
2018-01-29T20:40:56.205Z,71.67
2018-01-29T20:43:29.041Z,71.50
2018-01-29T20:45:57.481Z,72.52
2018-01-29T20:48:26.011Z,72.35
2018-01-29T20:50:54.503Z,71.16
2018-01-29T20:53:23.384Z,69.80
2018-01-29T20:55:51.832Z,70.33
2018-01-29T20:58:21.566Z,69.30
2018-01-29T21:00:50.035Z,69.89
2018-01-29T21:03:18.530Z,70.40
2018-01-29T21:05:47.012Z,70.03
2018-01-29T21:08:15.539Z,68.58
2018-01-29T21:10:44.651Z,69.93
2018-01-29T21:13:13.092Z,69.96
2018-01-29T21:15:41.560Z,70.90
2018-01-29T21:18:10.032Z,70.53
2018-01-29T21:20:38.847Z,71.21
2018-01-29T21:23:07.453Z,70.98
2018-01-29T21:25:36.298Z,70.32
2018-01-29T21:28:04.780Z,69.18
2018-01-29T21:30:34.177Z,69.71
2018-01-29T21:33:02.645Z,68.39
2018-01-29T21:35:31.246Z,70.12
2018-01-29T21:37:59.718Z,68.68
2018-01-29T21:40:28.176Z,68.02
2018-01-29T21:42:56.618Z,69.11
2018-01-29T21:45:25.065Z,68.54
2018-01-29T21:47:53.515Z,68.00
2018-01-29T21:50:21.964Z,68.21
2018-01-29T21:52:50.831Z,67.28
2018-01-29T21:55:19.272Z,65.94
2018-01-29T21:57:47.730Z,65.88
2018-01-29T22:00:16.562Z,65.85
2018-01-29T22:02:45.026Z,66.11
2018-01-29T22:05:13.530Z,66.74
2018-01-29T22:07:42.000Z,66.47
2018-01-29T22:10:11.232Z,66.69
2018-01-29T22:12:39.666Z,66.22
2018-01-29T22:15:08.127Z,66.25
2018-01-29T22:17:37.036Z,66.38
2018-01-29T22:20:06.551Z,66.83
2018-01-29T22:22:35.047Z,66.04
2018-01-29T22:25:03.493Z,64.62
2018-01-29T22:27:32.009Z,64.99
2018-01-29T22:30:00.632Z,64.48
2018-01-29T22:32:29.865Z,64.30
2018-01-29T22:34:58.306Z,64.08
2018-01-29T22:37:26.757Z,64.12
2018-01-29T22:39:55.730Z,63.80
2018-01-29T22:42:24.189Z,63.55
2018-01-29T22:44:52.718Z,63.49
2018-01-29T22:47:21.198Z,63.57
2018-01-29T22:49:49.680Z,63.62
2018-01-29T22:52:18.245Z,63.65
2018-01-29T22:54:46.782Z,63.56
2018-01-29T22:57:15.676Z,63.14
2018-01-29T22:59:45.494Z,63.05
2018-01-29T23:02:14.530Z,62.94
2018-01-29T23:04:43.050Z,61.96
2018-01-29T23:07:11.494Z,61.85
2018-01-29T23:09:40.023Z,62.37
2018-01-29T23:12:09.286Z,62.90
2018-01-29T23:14:38.168Z,62.57
2018-01-29T23:17:06.614Z,62.38
2018-01-29T23:19:35.131Z,61.53
2018-01-29T23:22:03.605Z,62.06
2018-01-29T23:24:32.597Z,60.63
2018-01-29T23:27:01.060Z,61.89
2018-01-29T23:29:29.515Z,61.94
2018-01-29T23:31:59.501Z,62.41
2018-01-29T23:34:28.582Z,61.94
2018-01-29T23:37:01.561Z,62.70
2018-01-29T23:39:30.713Z,63.06
2018-01-29T23:41:59.749Z,62.90
2018-01-29T23:44:28.233Z,62.12
2018-01-29T23:46:56.714Z,61.22
2018-01-29T23:49:25.160Z,60.65
2018-01-29T23:52:09.419Z,62.04
2018-01-29T23:54:38.110Z,61.93
2018-01-29T23:57:06.546Z,61.60
2018-01-29T23:59:34.987Z,61.88
